Time;durP1;ratioP1;P1;durP2;ratioP2;P2;SDS_P1;SDS_P2;PMS_P1;PMS_P2;Temp;Humidity;BMP_temperature;BMP_pressure;BME280_temperature;BME280_humidity;BME280_pressure;Samples;Min_cycle;Max_cycle;Signal;HPM_P1;HPM_P2
2023/04/07 00:12:16;;;;;;;26.75;15.95;;;4.70;99.90;;;;;;5992683;23;20368;-91
2023/04/07 00:15:26;;;;;;;25.58;15.57;;;4.70;99.90;;;;;;5999719;23;20031;-90
2023/04/07 00:18:29;;;;;;;25.27;15.55;;;4.70;99.90;;;;;;6051612;23;20026;-92
2023/04/07 00:21:22;;;;;;;26.60;16.10;;;4.70;1.00;;;;;;6106498;23;20025;-93
2023/04/07 05:10:02;;;;;;;36.60;19.63;;;4.60;1.00;;;;;;6087786;22;20364;-91
2023/04/07 05:18:14;;;;;;;29.85;17.33;;;4.90;99.90;;;;;;6045967;23;20078;-92
2023/04/07 05:52:24;;;;;;;26.40;17.30;;;5.20;99.90;;;;;;5946997;23;20012;-91
2023/04/07 05:55:29;;;;;;;25.35;15.73;;;5.20;99.90;;;;;;6049816;23;20027;-89
2023/04/07 05:58:41;;;;;;;25.35;16.25;;;5.30;99.90;;;;;;6082137;23;20041;-91
2023/04/07 06:01:57;;;;;;;26.35;16.00;;;5.30;1.00;;;;;;6096920;23;20030;-90
2023/04/07 07:20:57;;;;;;;;;;;;;;;;;;;;;
2023/04/07 07:28:16;;;;;;;23.60;16.00;;;6.50;1.00;;;;;;6031795;23;20046;-93
2023/04/07 07:36:39;;;;;;;24.70;16.08;;;6.70;99.90;;;;;;5905839;24;20030;-93
2023/04/07 07:40:48;;;;;;;;;;;;;;;;;;;;;
2023/04/07 07:44:52;;;;;;;;;;;;;;;;;;;;;
2023/04/07 08:35:57;;;;;;;9.93;7.25;;;14.20;99.90;;;;;;6203897;22;1444658;-91
2023/04/07 08:39:33;;;;;;;12.23;8.15;;;15.30;99.90;;;;;;6260601;23;20024;-94
2023/04/07 08:42:51;;;;;;;;;;;15.00;99.90;;;;;;6260521;22;20386;-92
2023/04/07 08:45:59;;;;;;;14.18;6.20;;;14.30;99.90;;;;;;6259513;23;19919;-94
2023/04/07 08:48:50;;;;;;;11.40;6.22;;;13.80;99.90;;;;;;6255236;23;20031;-91
2023/04/07 08:51:46;;;;;;;9.55;6.55;;;13.20;99.90;;;;;;6261485;22;20427;-91
2023/04/07 08:55:30;;;;;;;;;;;;;;;;;;;;;
2023/04/07 08:59:07;;;;;;;;;;;;;;;;;;;;;
2023/04/07 09:02:27;;;;;;;9.77;5.45;;;12.30;99.90;;;;;;6268715;23;20022;-92
2023/04/07 09:05:20;;;;;;;10.40;5.07;;;14.20;99.90;;;;;;6267501;23;20083;-90
2023/04/07 09:08:11;;;;;;;6.97;3.83;;;14.80;99.90;;;;;;6266968;23;20034;-90
2023/04/07 09:10:59;;;;;;;9.25;3.45;;;15.20;99.90;;;;;;6266581;23;20090;-93
2023/04/07 09:13:48;;;;;;;7.95;3.53;;;16.20;99.90;;;;;;6261127;23;20028;-91
2023/04/07 09:16:41;;;;;;;4.22;2.95;;;16.80;99.90;;;;;;6262622;23;20034;-92
2023/04/07 09:19:42;;;;;;;;;;;;;;;;;;;;;
2023/04/07 09:22:46;;;;;;;6.20;3.10;;;18.70;99.90;;;;;;6259475;23;20103;-90
2023/04/07 09:25:34;;;;;;;7.23;3.10;;;17.80;99.90;;;;;;6257388;23;20035;-91
2023/04/07 09:28:59;;;;;;;7.32;3.90;;;16.50;95.60;;;;;;6260475;23;20101;-91
2023/04/07 09:31:52;;;;;;;5.82;3.00;;;15.20;93.10;;;;;;6257006;23;20020;-90
2023/04/07 09:34:45;;;;;;;6.97;3.27;;;14.80;95.10;;;;;;6268742;22;20050;-92
2023/04/07 09:38:07;;;;;;;6.32;3.45;;;14.20;98.90;;;;;;6260709;22;20042;-92
2023/04/07 09:41:32;;;;;;;6.65;3.15;;;13.60;99.90;;;;;;6264713;22;20028;-91
2023/04/07 09:44:43;;;;;;;4.95;3.05;;;13.20;99.90;;;;;;6275277;22;20027;-90
2023/04/07 09:47:33;;;;;;;8.98;3.60;;;12.90;92.40;;;;;;6272028;22;20072;-92
2023/04/07 09:50:48;;;;;;;7.05;3.13;;;12.40;86.30;;;;;;6259566;22;20027;-93
2023/04/07 09:53:46;;;;;;;6.78;3.67;;;11.70;93.10;;;;;;6284609;22;20020;-91
2023/04/07 09:57:08;;;;;;;5.72;3.58;;;12.00;99.70;;;;;;6280207;22;20373;-92
2023/04/07 10:00:47;;;;;;;6.80;3.38;;;12.60;99.90;;;;;;6284052;22;20423;-94
2023/04/07 10:04:54;;;;;;;5.50;3.10;;;12.50;99.40;;;;;;6281796;22;20051;-93
2023/04/07 10:08:17;;;;;;;6.38;3.13;;;12.00;99.90;;;;;;6250465;22;20089;-93
2023/04/07 10:11:17;;;;;;;7.93;3.33;;;11.80;94.60;;;;;;6270335;22;20326;-93
2023/04/07 10:14:31;;;;;;;8.52;3.83;;;11.80;96.40;;;;;;6202264;23;20466;-92
2023/04/07 10:20:56;;;;;;;8.57;2.70;;;13.30;99.90;;;;;;6198015;23;20025;-93
2023/04/07 10:24:49;;;;;;;6.20;2.60;;;15.60;94.60;;;;;;6201471;23;20031;-91
2023/04/07 10:28:20;;;;;;;;;;;;;;;;;;;;;
2023/04/07 10:31:18;;;;;;;6.32;2.40;;;17.40;50.70;;;;;;6253016;22;20032;-90
2023/04/07 10:34:48;;;;;;;4.65;2.08;;;19.80;46.60;;;;;;6262765;22;20089;-92
2023/04/07 10:38:12;;;;;;;5.78;2.60;;;19.40;25.90;;;;;;6265017;22;20019;-93
2023/04/07 10:45:58;;;;;;;;;;;;;;;;;;;;;
2023/04/07 10:58:28;;;;;;;;;;;;;;;;;;;;;
2023/04/07 11:01:18;;;;;;;11.18;4.50;;;10.70;99.90;;;;;;5967702;23;20039;-93
2023/04/07 11:04:14;;;;;;;9.52;4.35;;;9.40;99.90;;;;;;6056231;23;20023;-89
2023/04/07 11:07:15;;;;;;;10.80;5.90;;;8.20;99.90;;;;;;6042131;23;20035;-93
2023/04/07 11:10:15;;;;;;;8.23;4.70;;;7.60;1.00;;;;;;6088287;23;20041;-91
2023/04/07 11:13:10;;;;;;;6.80;4.97;;;7.30;42.60;;;;;;6156745;23;20025;-89
2023/04/07 11:16:06;;;;;;;12.73;5.20;;;7.30;99.90;;;;;;6138624;23;20021;-92
2023/04/07 11:19:18;;;;;;;11.43;6.05;;;7.40;49.50;;;;;;6135936;23;20036;-89
2023/04/07 11:22:20;;;;;;;19.55;8.73;;;7.60;98.80;;;;;;6154958;23;20068;-89
2023/04/07 11:25:52;;;;;;;;;;;;;;;;;;;;;
2023/04/07 11:36:45;;;;;;;14.90;8.77;;;8.10;1.00;;;;;;6289268;22;20030;-91
2023/04/07 11:43:26;;;;;;;17.83;8.13;;;8.00;1.00;;;;;;6282005;22;20408;-91
2023/04/07 11:46:18;;;;;;;16.15;7.40;;;7.90;1.00;;;;;;6282375;22;20111;-91
2023/04/07 11:49:55;;;;;;;11.32;7.97;;;7.90;1.00;;;;;;6282220;22;20027;-91
2023/04/07 11:57:14;;;;;;;;;;;;;;;;;;;;;
2023/04/07 12:04:48;;;;;;;;;;;;;;;;;;;;;
2023/04/07 12:08:26;;;;;;;;;;;;;;;;;;;;;
2023/04/07 12:15:00;;;;;;;9.55;5.65;;;7.50;1.00;;;;;;6106425;23;20084;-92
2023/04/07 12:22:13;;;;;;;10.50;4.57;;;7.50;1.00;;;;;;5908978;24;20017;-93
2023/04/07 12:25:39;;;;;;;5.03;3.75;;;7.60;99.90;;;;;;5956575;23;20035;-92
2023/04/07 12:29:38;;;;;;;4.90;2.58;;;7.50;1.00;;;;;;6016117;23;20039;-93
2023/04/07 12:32:39;;;;;;;;;;;;;;;;;;;;;
2023/04/07 12:49:13;;;;;;;;;;;;;;;;;;;;;
2023/04/07 12:53:03;;;;;;;;;;;;;;;;;;;;;
2023/04/07 12:55:55;;;;;;;10.02;4.95;;;8.50;90.70;;;;;;6095976;23;20484;-92
2023/04/07 12:59:53;;;;;;;8.25;5.55;;;8.70;99.90;;;;;;6079327;23;20031;-91
2023/04/07 13:03:31;;;;;;;17.10;6.90;;;8.90;99.90;;;;;;6075646;23;20026;-91
2023/04/07 13:06:51;;;;;;;9.25;5.93;;;8.90;97.80;;;;;;6112576;23;20026;-92
2023/04/07 13:09:56;;;;;;;13.25;6.53;;;8.90;85.80;;;;;;6125235;23;20006;-92
2023/04/07 13:12:52;;;;;;;8.73;5.60;;;9.00;99.90;;;;;;6129510;23;20453;-92
2023/04/07 13:15:57;;;;;;;11.45;5.15;;;9.30;1.00;;;;;;6148678;23;20026;-92
2023/04/07 13:19:04;;;;;;;9.48;4.03;;;9.60;1.00;;;;;;6291534;22;20027;-93
2023/04/07 13:22:02;;;;;;;8.68;3.28;;;9.70;99.90;;;;;;6287207;22;20058;-93
2023/04/07 13:24:55;;;;;;;5.38;3.17;;;9.80;99.90;;;;;;6269160;22;20050;-91
2023/04/07 13:31:11;;;;;;;6.82;3.20;;;10.00;1.00;;;;;;6279780;22;20047;-93
2023/04/07 13:34:02;;;;;;;4.43;2.83;;;10.10;47.80;;;;;;6281410;22;20039;-92
2023/04/07 13:37:18;;;;;;;6.03;3.03;;;10.20;99.90;;;;;;6257455;22;20052;-93
2023/04/07 13:40:11;;;;;;;4.35;2.63;;;10.20;1.00;;;;;;6257474;22;20024;-92
2023/04/07 13:43:31;;;;;;;5.53;2.58;;;10.30;93.30;;;;;;6277555;22;20113;-93
2023/04/07 13:47:04;;;;;;;;;;;;;;;;;;;;;
2023/04/07 13:54:36;;;;;;;8.60;4.10;;;10.00;99.90;;;;;;6043638;23;20222;-88
2023/04/07 14:07:02;;;;;;;;;;;;;;;;;;;;;
2023/04/07 14:14:25;;;;;;;;;;;;;;;;;;;;;
2023/04/07 14:17:30;;;;;;;11.38;4.82;;;8.90;99.90;;;;;;6093242;23;20019;-89
2023/04/07 14:24:01;;;;;;;6.90;5.25;;;8.90;99.90;;;;;;6181424;23;20049;-89
2023/04/07 14:27:21;;;;;;;12.13;5.05;;;8.90;99.90;;;;;;6182036;23;20009;-90
2023/04/07 14:30:53;;;;;;;8.35;4.13;;;9.00;99.90;;;;;;6177715;23;20069;-93
2023/04/07 14:34:18;;;;;;;;;;;;;;;;;;;;;
2023/04/07 14:37:25;;;;;;;8.95;4.70;;;9.00;99.90;;;;;;6113637;23;20073;-94
2023/04/07 14:41:47;;;;;;;;;;;;;;;;;;;;;
2023/04/07 14:44:40;;;;;;;14.25;4.60;;;8.80;99.90;;;;;;6054769;23;20422;-90
2023/04/07 14:47:27;;;;;;;9.45;5.75;;;8.80;5.50;;;;;;6042598;23;20102;-92
2023/04/07 14:50:32;;;;;;;13.73;5.95;;;8.80;1.00;;;;;;6041887;23;20419;-92
2023/04/07 14:53:20;;;;;;;11.13;5.95;;;8.70;99.90;;;;;;6040605;23;20423;-91
2023/04/07 14:56:08;;;;;;;13.40;6.55;;;8.70;99.90;;;;;;6039791;23;20031;-89
2023/04/07 14:58:55;;;;;;;10.40;6.20;;;8.60;1.00;;;;;;6040034;23;20030;-92
2023/04/07 15:01:43;;;;;;;9.27;5.97;;;8.70;1.00;;;;;;6154896;23;20084;-91
2023/04/07 15:04:32;;;;;;;10.82;6.28;;;8.60;99.90;;;;;;6155807;23;20029;-91
2023/04/07 15:07:25;;;;;;;13.20;6.50;;;8.60;99.90;;;;;;6155340;23;20096;-91
2023/04/07 15:10:12;;;;;;;9.27;6.03;;;8.70;99.90;;;;;;6154686;23;20021;-92
2023/04/07 15:13:02;;;;;;;11.55;6.15;;;8.60;99.90;;;;;;6155680;23;20100;-91
2023/04/07 15:15:49;;;;;;;12.30;7.32;;;8.60;99.90;;;;;;6256283;22;20338;-90
2023/04/07 15:18:39;;;;;;;10.95;7.38;;;8.60;1.00;;;;;;6256135;22;20023;-91
2023/04/07 15:21:27;;;;;;;12.88;6.90;;;8.70;95.80;;;;;;6276092;22;20342;-93
2023/04/07 15:24:15;;;;;;;12.15;7.35;;;8.70;1.00;;;;;;6256678;22;20098;-91
2023/04/07 15:27:05;;;;;;;13.48;7.90;;;8.70;50.40;;;;;;6278661;22;20031;-91
2023/04/07 15:29:54;;;;;;;11.45;7.68;;;8.70;1.00;;;;;;6276847;22;20337;-91
2023/04/07 15:32:56;;;;;;;13.10;8.25;;;8.80;99.90;;;;;;6280675;22;20031;-91
2023/04/07 15:35:44;;;;;;;12.32;8.82;;;8.80;1.00;;;;;;6255213;22;20145;-92
2023/04/07 15:38:31;;;;;;;17.27;8.23;;;8.90;1.00;;;;;;6275115;22;20452;-91
2023/04/07 15:41:19;;;;;;;13.25;6.97;;;8.90;99.90;;;;;;6255028;22;20030;-91
2023/04/07 15:44:06;;;;;;;11.75;6.75;;;9.00;99.90;;;;;;6277839;22;20024;-90
2023/04/07 15:46:57;;;;;;;11.18;7.28;;;9.00;99.90;;;;;;6253507;22;20024;-92
2023/04/07 15:49:44;;;;;;;9.95;6.80;;;9.10;99.90;;;;;;6256392;22;20028;-91
2023/04/07 15:52:38;;;;;;;10.80;7.75;;;9.20;99.90;;;;;;6257437;22;20020;-91
2023/04/07 15:55:34;;;;;;;11.30;7.18;;;9.10;99.90;;;;;;6258646;22;20343;-92
2023/04/07 15:58:49;;;;;;;16.45;8.18;;;9.00;14.70;;;;;;6286228;22;20472;-92
2023/04/07 16:01:37;;;;;;;11.98;8.35;;;8.90;1.00;;;;;;6265025;22;20039;-90
2023/04/07 16:04:37;;;;;;;15.93;8.15;;;8.90;99.90;;;;;;6280234;22;20020;-90
2023/04/07 16:07:27;;;;;;;14.52;8.73;;;8.80;99.90;;;;;;6275466;22;20031;-93
2023/04/07 16:10:18;;;;;;;14.23;7.53;;;8.80;99.90;;;;;;6254469;22;20020;-91
2023/04/07 16:13:10;;;;;;;17.63;9.05;;;8.80;1.00;;;;;;6256139;22;20042;-92
2023/04/07 16:15:59;;;;;;;15.85;8.75;;;8.70;1.00;;;;;;6252751;22;20038;-91
2023/04/07 16:23:35;;;;;;;17.95;9.60;;;8.70;99.90;;;;;;6127059;23;20021;-91
2023/04/07 16:26:38;;;;;;;22.08;11.30;;;8.60;1.00;;;;;;6129028;23;20124;-91
2023/04/07 16:29:41;;;;;;;16.42;11.85;;;8.60;99.90;;;;;;6126078;23;20026;-91
2023/04/07 16:32:38;;;;;;;21.52;11.20;;;8.50;99.90;;;;;;6152803;23;20061;-90
2023/04/07 16:35:26;;;;;;;17.35;11.23;;;8.50;38.80;;;;;;6163724;23;20518;-91
2023/04/07 16:38:17;;;;;;;17.50;11.98;;;8.50;39.30;;;;;;6184247;23;20175;-92
2023/04/07 16:41:12;;;;;;;18.33;12.75;;;8.40;99.90;;;;;;6182580;23;20367;-92
2023/04/07 16:43:59;;;;;;;14.68;10.93;;;8.20;99.90;;;;;;6161689;23;20025;-90
2023/04/07 16:46:47;;;;;;;15.07;11.93;;;8.20;99.90;;;;;;6163539;23;20028;-93
2023/04/07 16:49:35;;;;;;;23.10;13.48;;;8.10;99.90;;;;;;6188745;23;20140;-92
2023/04/07 16:52:29;;;;;;;22.70;13.95;;;8.10;99.90;;;;;;6165034;23;20033;-92
2023/04/07 16:55:24;;;;;;;20.60;13.70;;;8.10;99.90;;;;;;6166414;23;20029;-91
2023/04/07 16:58:11;;;;;;;25.27;13.60;;;8.10;1.00;;;;;;6279829;22;20330;-91
2023/04/07 17:01:01;;;;;;;22.48;12.40;;;8.10;99.90;;;;;;6277636;22;20107;-91
2023/04/07 17:03:51;;;;;;;18.85;12.40;;;8.20;99.90;;;;;;6278404;22;20030;-92
2023/04/07 17:06:40;;;;;;;18.90;12.02;;;8.30;99.90;;;;;;6278883;22;20034;-90
2023/04/07 17:09:28;;;;;;;20.65;11.60;;;8.30;99.90;;;;;;6255920;22;20346;-91
2023/04/07 17:12:16;;;;;;;21.95;11.52;;;8.40;99.90;;;;;;6280638;22;20034;-91
2023/04/07 17:15:06;;;;;;;12.52;10.43;;;8.40;1.00;;;;;;6281058;22;20038;-90
2023/04/07 17:17:57;;;;;;;20.52;12.50;;;8.50;99.90;;;;;;6280460;22;20058;-90
2023/04/07 17:21:12;;;;;;;20.88;13.52;;;8.50;99.90;;;;;;6272448;22;20027;-92
2023/04/07 17:24:31;;;;;;;22.60;12.05;;;8.50;99.90;;;;;;6276620;22;20051;-93
2023/04/07 17:27:45;;;;;;;17.45;10.05;;;8.50;99.90;;;;;;6301081;22;20087;-91
2023/04/07 17:30:34;;;;;;;15.17;9.67;;;8.50;99.90;;;;;;6265351;22;20023;-90
2023/04/07 17:33:21;;;;;;;21.50;12.88;;;8.30;99.90;;;;;;6262305;22;20043;-90
2023/04/07 17:36:11;;;;;;;17.88;11.88;;;8.30;99.90;;;;;;6286468;22;20027;-91
2023/04/07 17:39:07;;;;;;;20.63;12.82;;;8.20;99.90;;;;;;6297477;22;20024;-91
2023/04/07 17:42:00;;;;;;;24.85;14.77;;;8.10;99.90;;;;;;6251651;22;20415;-92
2023/04/07 17:45:20;;;;;;;20.88;13.65;;;8.10;1.00;;;;;;6284532;22;20050;-93
2023/04/07 17:48:32;;;;;;;16.23;10.63;;;8.00;99.90;;;;;;6252171;22;20015;-92
2023/04/07 17:56:08;;;;;;;;;;;;;;;;;;;;;
2023/04/07 18:03:32;;;;;;;14.05;7.30;;;7.70;1.00;;;;;;6128461;23;20037;-91
2023/04/07 18:06:21;;;;;;;9.95;6.90;;;7.70;1.00;;;;;;6128369;23;20030;-92
2023/04/07 18:09:18;;;;;;;10.30;6.65;;;7.60;26.50;;;;;;6126308;23;20369;-92
2023/04/07 18:16:18;;;;;;;10.50;6.78;;;7.50;1.00;;;;;;6159771;22;20003;-91
2023/04/07 18:19:43;;;;;;;9.30;7.05;;;7.40;99.90;;;;;;6259700;22;20023;-93
2023/04/07 18:23:31;;;;;;;8.18;6.63;;;7.40;99.90;;;;;;6241328;22;20024;-93
2023/04/07 18:26:42;;;;;;;;;;;;;;;;;;;;;
2023/04/07 18:29:40;;;;;;;4.72;3.90;;;7.30;99.90;;;;;;6282901;22;20034;-92
2023/04/07 18:32:49;;;;;;;6.68;4.82;;;7.20;99.90;;;;;;6262944;22;20035;-93
2023/04/07 18:39:38;;;;;;;5.50;4.43;;;7.00;99.90;;;;;;6177219;23;20039;-92
2023/04/07 18:45:30;;;;;;;5.05;3.42;;;6.80;1.00;;;;;;6215097;22;20027;-92
2023/04/07 18:53:44;;;;;;;3.75;3.20;;;6.70;1.00;;;;;;6230386;22;20051;-90
2023/04/07 18:56:25;;;;;;;4.32;3.15;;;6.70;99.90;;;;;;6223018;23;20017;-92
2023/04/07 18:59:17;;;;;;;;;;;6.70;1.00;;;;;;6219497;22;20043;-89
2023/04/07 19:02:09;;;;;;;5.25;3.50;;;6.70;1.00;;;;;;6219793;23;19947;-91
2023/04/07 19:05:12;;;;;;;4.78;3.33;;;6.70;1.00;;;;;;6218082;22;20032;-90
2023/04/07 19:08:22;;;;;;;4.03;3.30;;;6.70;1.00;;;;;;6240213;22;20008;-92
2023/04/07 19:16:15;;;;;;;6.00;4.78;;;6.70;1.00;;;;;;6174862;22;20020;-91
2023/04/07 19:39:49;;;;;;;4.25;3.70;;;6.50;99.90;;;;;;6170245;23;20009;-92
2023/04/07 19:42:52;;;;;;;4.45;3.83;;;6.50;99.90;;;;;;6170537;23;20336;-92
2023/04/07 19:46:07;;;;;;;6.15;4.30;;;6.50;99.90;;;;;;6171219;23;20084;-93
2023/04/07 19:49:45;;;;;;;;;;;;;;;;;;;;;
2023/04/07 19:56:58;;;;;;;6.93;5.07;;;6.40;1.00;;;;;;6024951;23;20012;-95
2023/04/07 20:00:23;;;;;;;;;;;;;;;;;;;;;
2023/04/07 20:03:38;;;;;;;;;;;;;;;;;;;;;
2023/04/07 20:34:32;;;;;;;12.57;8.70;;;6.20;99.90;;;;;;6184601;22;20012;-92
2023/04/07 20:37:45;;;;;;;14.10;9.05;;;6.20;99.90;;;;;;6235143;23;20020;-92
2023/04/07 20:40:36;;;;;;;18.95;10.75;;;6.30;99.90;;;;;;6229946;23;20423;-90
2023/04/07 20:43:27;;;;;;;21.52;12.02;;;6.30;99.90;;;;;;6230013;23;20380;-92
2023/04/07 20:46:28;;;;;;;18.77;10.65;;;6.30;99.90;;;;;;6232905;23;20046;-94
2023/04/07 20:49:30;;;;;;;17.25;10.77;;;6.30;99.90;;;;;;6247130;22;20024;-93
2023/04/07 20:52:42;;;;;;;;;;;;;;;;;;;;;
2023/04/07 20:55:47;;;;;;;14.32;10.48;;;6.20;99.90;;;;;;6269346;23;20095;-91
2023/04/07 20:58:39;;;;;;;17.83;11.55;;;6.10;99.90;;;;;;6248446;23;20023;-93
2023/04/07 21:06:04;;;;;;;;;;;;;;;;;;;;;
2023/04/07 21:09:15;;;;;;;17.15;11.00;;;6.00;99.90;;;;;;6262429;23;20043;-92
2023/04/07 21:12:31;;;;;;;21.40;12.10;;;6.00;99.90;;;;;;6234150;23;20031;-90
2023/04/07 21:15:19;;;;;;;16.42;12.32;;;6.10;99.90;;;;;;6238198;23;20028;-91
2023/04/07 21:18:19;;;;;;;19.77;12.88;;;6.10;99.90;;;;;;6237863;23;20095;-91
2023/04/07 21:21:09;;;;;;;13.65;9.45;;;6.10;99.90;;;;;;6237579;23;20039;-92
2023/04/07 21:24:13;;;;;;;20.10;12.68;;;6.10;99.90;;;;;;6222507;23;20080;-92
2023/04/07 21:27:19;;;;;;;21.45;14.00;;;6.20;99.90;;;;;;6243898;23;20434;-92
2023/04/07 21:30:21;;;;;;;22.13;13.95;;;6.20;99.90;;;;;;6215260;23;20423;-92
2023/04/07 21:33:09;;;;;;;23.52;14.55;;;6.20;99.90;;;;;;6227193;23;20351;-93
2023/04/07 21:36:06;;;;;;;25.80;14.65;;;6.20;99.90;;;;;;6247061;23;20030;-92
2023/04/07 21:48:02;;;;;;;;;;;;;;;;;;;;;
